sensor_id;sensor_type;location;lat;lon;timestamp;pressure;altitude;pressure_sealevel;temperature;humidity
15674;BME280;7937;48.090;16.212;2024-02-15T00:02:23;98321.81;;;6.16;96.43
15674;BME280;7937;48.090;16.212;2024-02-15T00:05:25;98324.13;;;5.91;96.44
15674;BME280;7937;48.090;16.212;2024-02-15T00:08:31;98325.41;;;5.67;98.83
15674;BME280;7937;48.090;16.212;2024-02-15T00:11:33;98323.28;;;5.56;99.34
15674;BME280;7937;48.090;16.212;2024-02-15T00:14:35;98318.41;;;5.60;100.00
15674;BME280;7937;48.090;16.212;2024-02-15T00:17:40;98319.69;;;5.36;100.00
15674;BME280;7937;48.090;16.212;2024-02-15T00:20:42;98302.53;;;5.25;100.00
15674;BME280;7937;48.090;16.212;2024-02-15T00:23:46;98309.84;;;5.23;100.00
15674;BME280;7937;48.090;16.212;2024-02-15T00:26:48;98317.00;;;5.29;100.00
15674;BME280;7937;48.090;16.212;2024-02-15T00:29:50;98317.91;;;5.15;100.00
15674;BME280;7937;48.090;16.212;2024-02-15T00:32:53;98318.34;;;4.97;100.00
15674;BME280;7937;48.090;16.212;2024-02-15T00:35:55;98313.84;;;5.12;100.00
15674;BME280;7937;48.090;16.212;2024-02-15T00:38:58;98322.34;;;4.86;100.00
15674;BME280;7937;48.090;16.212;2024-02-15T00:42:01;98326.97;;;5.06;100.00
15674;BME280;7937;48.090;16.212;2024-02-15T00:45:04;98313.28;;;4.96;100.00
15674;BME280;7937;48.090;16.212;2024-02-15T00:48:07;98322.09;;;5.03;100.00
15674;BME280;7937;48.090;16.212;2024-02-15T00:51:10;98318.75;;;4.94;100.00
15674;BME280;7937;48.090;16.212;2024-02-15T00:54:12;98310.47;;;4.76;100.00
15674;BME280;7937;48.090;16.212;2024-02-15T00:57:14;98320.09;;;4.83;100.00
15674;BME280;7937;48.090;16.212;2024-02-15T01:00:16;98325.34;;;5.05;100.00
15674;BME280;7937;48.090;16.212;2024-02-15T01:03:19;98327.75;;;4.78;100.00
15674;BME280;7937;48.090;16.212;2024-02-15T01:06:21;98334.31;;;4.68;100.00
15674;BME280;7937;48.090;16.212;2024-02-15T01:09:24;98336.84;;;4.76;100.00
15674;BME280;7937;48.090;16.212;2024-02-15T01:12:26;98334.41;;;4.74;100.00
15674;BME280;7937;48.090;16.212;2024-02-15T01:15:29;98330.91;;;4.88;100.00
15674;BME280;7937;48.090;16.212;2024-02-15T01:18:31;98334.84;;;4.78;100.00
15674;BME280;7937;48.090;16.212;2024-02-15T01:21:34;98325.22;;;5.13;100.00
15674;BME280;7937;48.090;16.212;2024-02-15T01:24:36;98325.06;;;4.93;100.00
15674;BME280;7937;48.090;16.212;2024-02-15T01:27:38;98325.38;;;4.83;100.00
15674;BME280;7937;48.090;16.212;2024-02-15T01:30:40;98315.75;;;4.76;100.00
15674;BME280;7937;48.090;16.212;2024-02-15T01:33:45;98306.09;;;5.11;100.00
15674;BME280;7937;48.090;16.212;2024-02-15T01:36:48;98298.66;;;4.93;100.00
15674;BME280;7937;48.090;16.212;2024-02-15T01:39:52;98308.94;;;5.09;100.00
15674;BME280;7937;48.090;16.212;2024-02-15T01:42:54;98314.16;;;5.03;100.00
15674;BME280;7937;48.090;16.212;2024-02-15T01:45:57;98310.22;;;5.20;100.00
15674;BME280;7937;48.090;16.212;2024-02-15T01:49:02;98310.81;;;5.15;100.00
15674;BME280;7937;48.090;16.212;2024-02-15T01:52:05;98306.72;;;5.13;100.00
15674;BME280;7937;48.090;16.212;2024-02-15T01:55:10;98301.94;;;5.23;100.00
15674;BME280;7937;48.090;16.212;2024-02-15T01:58:13;98298.84;;;5.20;100.00
15674;BME280;7937;48.090;16.212;2024-02-15T02:01:16;98288.88;;;5.50;100.00
15674;BME280;7937;48.090;16.212;2024-02-15T02:04:19;98297.03;;;5.55;100.00
15674;BME280;7937;48.090;16.212;2024-02-15T02:07:21;98290.94;;;5.54;100.00
15674;BME280;7937;48.090;16.212;2024-02-15T02:10:23;98294.97;;;5.50;100.00
15674;BME280;7937;48.090;16.212;2024-02-15T02:13:25;98289.63;;;5.72;100.00
15674;BME280;7937;48.090;16.212;2024-02-15T02:16:31;98289.47;;;5.80;100.00
15674;BME280;7937;48.090;16.212;2024-02-15T02:19:34;98284.34;;;5.72;100.00
15674;BME280;7937;48.090;16.212;2024-02-15T02:22:41;98278.72;;;5.88;100.00
15674;BME280;7937;48.090;16.212;2024-02-15T02:25:44;98280.94;;;5.84;100.00
15674;BME280;7937;48.090;16.212;2024-02-15T02:28:48;98283.78;;;5.83;100.00
15674;BME280;7937;48.090;16.212;2024-02-15T02:31:50;98282.34;;;5.80;100.00
15674;BME280;7937;48.090;16.212;2024-02-15T02:34:53;98284.81;;;5.88;100.00
15674;BME280;7937;48.090;16.212;2024-02-15T02:37:59;98287.13;;;5.91;100.00
15674;BME280;7937;48.090;16.212;2024-02-15T02:41:01;98293.69;;;6.09;100.00
15674;BME280;7937;48.090;16.212;2024-02-15T02:44:04;98291.19;;;6.01;100.00
15674;BME280;7937;48.090;16.212;2024-02-15T02:47:06;98290.22;;;6.08;100.00
15674;BME280;7937;48.090;16.212;2024-02-15T02:50:09;98296.34;;;6.09;100.00
15674;BME280;7937;48.090;16.212;2024-02-15T02:53:11;98289.41;;;6.08;100.00
15674;BME280;7937;48.090;16.212;2024-02-15T02:56:15;98287.84;;;6.27;100.00
15674;BME280;7937;48.090;16.212;2024-02-15T02:59:17;98294.97;;;6.26;100.00
15674;BME280;7937;48.090;16.212;2024-02-15T03:02:19;98284.56;;;6.18;100.00
15674;BME280;7937;48.090;16.212;2024-02-15T03:05:24;98287.63;;;6.22;100.00
15674;BME280;7937;48.090;16.212;2024-02-15T03:08:26;98282.34;;;6.28;100.00
15674;BME280;7937;48.090;16.212;2024-02-15T03:11:29;98288.28;;;6.37;100.00
15674;BME280;7937;48.090;16.212;2024-02-15T03:14:31;98285.47;;;6.52;100.00
15674;BME280;7937;48.090;16.212;2024-02-15T03:17:41;98291.78;;;6.51;100.00
15674;BME280;7937;48.090;16.212;2024-02-15T03:20:43;98283.81;;;6.44;100.00
15674;BME280;7937;48.090;16.212;2024-02-15T03:23:46;98291.53;;;6.32;100.00
15674;BME280;7937;48.090;16.212;2024-02-15T03:26:48;98289.28;;;6.29;100.00
15674;BME280;7937;48.090;16.212;2024-02-15T03:29:50;98297.03;;;6.44;100.00
15674;BME280;7937;48.090;16.212;2024-02-15T03:32:54;98284.84;;;6.36;100.00
15674;BME280;7937;48.090;16.212;2024-02-15T03:35:57;98282.78;;;6.32;100.00
15674;BME280;7937;48.090;16.212;2024-02-15T03:39:01;98283.53;;;6.19;100.00
15674;BME280;7937;48.090;16.212;2024-02-15T03:42:04;98284.22;;;6.41;100.00
15674;BME280;7937;48.090;16.212;2024-02-15T03:45:06;98254.66;;;6.11;100.00
15674;BME280;7937;48.090;16.212;2024-02-15T03:48:08;98275.41;;;6.20;100.00
15674;BME280;7937;48.090;16.212;2024-02-15T03:51:16;98277.00;;;6.15;100.00
15674;BME280;7937;48.090;16.212;2024-02-15T03:54:19;98280.09;;;6.25;100.00
15674;BME280;7937;48.090;16.212;2024-02-15T03:57:21;98283.53;;;6.12;100.00
15674;BME280;7937;48.090;16.212;2024-02-15T04:00:23;98286.38;;;6.11;100.00
15674;BME280;7937;48.090;16.212;2024-02-15T04:03:27;98282.94;;;6.24;100.00
15674;BME280;7937;48.090;16.212;2024-02-15T04:06:30;98282.41;;;6.55;100.00
15674;BME280;7937;48.090;16.212;2024-02-15T04:09:35;98277.28;;;6.33;100.00
15674;BME280;7937;48.090;16.212;2024-02-15T04:12:37;98273.59;;;6.21;100.00
15674;BME280;7937;48.090;16.212;2024-02-15T04:15:39;98266.84;;;6.12;100.00
15674;BME280;7937;48.090;16.212;2024-02-15T04:18:43;98278.44;;;6.11;100.00
15674;BME280;7937;48.090;16.212;2024-02-15T04:21:47;98280.88;;;6.12;100.00
15674;BME280;7937;48.090;16.212;2024-02-15T04:24:49;98271.09;;;6.06;100.00
15674;BME280;7937;48.090;16.212;2024-02-15T04:27:51;98268.91;;;6.23;100.00
15674;BME280;7937;48.090;16.212;2024-02-15T04:30:54;98264.81;;;6.07;100.00
15674;BME280;7937;48.090;16.212;2024-02-15T04:33:57;98265.81;;;6.06;100.00
15674;BME280;7937;48.090;16.212;2024-02-15T04:37:01;98252.97;;;5.97;100.00
15674;BME280;7937;48.090;16.212;2024-02-15T04:40:08;98258.75;;;6.27;100.00
15674;BME280;7937;48.090;16.212;2024-02-15T04:43:13;98262.59;;;6.17;100.00
15674;BME280;7937;48.090;16.212;2024-02-15T04:46:18;98259.53;;;6.14;100.00
15674;BME280;7937;48.090;16.212;2024-02-15T04:49:23;98261.56;;;6.25;100.00
15674;BME280;7937;48.090;16.212;2024-02-15T04:52:26;98262.38;;;6.12;100.00
15674;BME280;7937;48.090;16.212;2024-02-15T04:55:28;98263.19;;;6.19;100.00
15674;BME280;7937;48.090;16.212;2024-02-15T04:58:33;98260.97;;;6.23;100.00
15674;BME280;7937;48.090;16.212;2024-02-15T05:01:38;98244.66;;;6.06;100.00
15674;BME280;7937;48.090;16.212;2024-02-15T05:04:42;98261.56;;;6.12;100.00
15674;BME280;7937;48.090;16.212;2024-02-15T05:07:44;98268.91;;;6.30;100.00
15674;BME280;7937;48.090;16.212;2024-02-15T05:10:46;98258.94;;;6.18;100.00
15674;BME280;7937;48.090;16.212;2024-02-15T05:13:48;98265.69;;;6.34;100.00
15674;BME280;7937;48.090;16.212;2024-02-15T05:16:52;98267.88;;;6.17;100.00
15674;BME280;7937;48.090;16.212;2024-02-15T05:19:54;98264.38;;;6.10;100.00
15674;BME280;7937;48.090;16.212;2024-02-15T05:23:01;98263.34;;;6.05;100.00
15674;BME280;7937;48.090;16.212;2024-02-15T05:26:03;98263.13;;;6.00;100.00
15674;BME280;7937;48.090;16.212;2024-02-15T05:29:05;98270.16;;;6.27;100.00
15674;BME280;7937;48.090;16.212;2024-02-15T05:32:07;98268.47;;;6.13;100.00
15674;BME280;7937;48.090;16.212;2024-02-15T05:35:11;98247.69;;;5.97;100.00
15674;BME280;7937;48.090;16.212;2024-02-15T05:38:13;98274.38;;;6.15;100.00
15674;BME280;7937;48.090;16.212;2024-02-15T05:41:17;98284.41;;;6.26;100.00
15674;BME280;7937;48.090;16.212;2024-02-15T05:44:19;98284.03;;;6.42;100.00
15674;BME280;7937;48.090;16.212;2024-02-15T05:47:22;98283.59;;;6.39;100.00
15674;BME280;7937;48.090;16.212;2024-02-15T05:50:24;98287.03;;;6.26;100.00
15674;BME280;7937;48.090;16.212;2024-02-15T05:53:30;98286.41;;;6.24;100.00
15674;BME280;7937;48.090;16.212;2024-02-15T05:56:32;98283.97;;;6.23;100.00
15674;BME280;7937;48.090;16.212;2024-02-15T05:59:34;98292.94;;;6.22;100.00
15674;BME280;7937;48.090;16.212;2024-02-15T06:02:37;98284.41;;;6.26;100.00
15674;BME280;7937;48.090;16.212;2024-02-15T06:05:40;98292.13;;;6.21;100.00
15674;BME280;7937;48.090;16.212;2024-02-15T06:08:46;98294.56;;;6.23;100.00
15674;BME280;7937;48.090;16.212;2024-02-15T06:11:49;98301.03;;;6.20;100.00
15674;BME280;7937;48.090;16.212;2024-02-15T06:14:53;98295.84;;;6.46;100.00
15674;BME280;7937;48.090;16.212;2024-02-15T06:17:55;98303.75;;;6.40;100.00
15674;BME280;7937;48.090;16.212;2024-02-15T06:20:59;98297.44;;;6.34;100.00
15674;BME280;7937;48.090;16.212;2024-02-15T06:24:02;98301.91;;;6.27;100.00
15674;BME280;7937;48.090;16.212;2024-02-15T06:27:05;98302.06;;;6.19;100.00
15674;BME280;7937;48.090;16.212;2024-02-15T06:30:11;98275.75;;;5.98;100.00
15674;BME280;7937;48.090;16.212;2024-02-15T06:33:32;98315.09;;;6.20;100.00
15674;BME280;7937;48.090;16.212;2024-02-15T06:36:56;98317.56;;;6.29;100.00
15674;BME280;7937;48.090;16.212;2024-02-15T06:40:17;98318.22;;;6.44;100.00
15674;BME280;7937;48.090;16.212;2024-02-15T06:43:19;98324.53;;;6.36;100.00
15674;BME280;7937;48.090;16.212;2024-02-15T06:46:21;98320.91;;;6.51;100.00
15674;BME280;7937;48.090;16.212;2024-02-15T06:49:23;98331.06;;;6.54;100.00
15674;BME280;7937;48.090;16.212;2024-02-15T06:52:29;98334.53;;;6.47;100.00
15674;BME280;7937;48.090;16.212;2024-02-15T06:55:31;98329.81;;;6.43;100.00
15674;BME280;7937;48.090;16.212;2024-02-15T06:58:33;98327.59;;;6.46;100.00
15674;BME280;7937;48.090;16.212;2024-02-15T07:01:35;98326.59;;;6.54;100.00
15674;BME280;7937;48.090;16.212;2024-02-15T07:04:39;98328.47;;;6.60;100.00
15674;BME280;7937;48.090;16.212;2024-02-15T07:07:42;98325.03;;;7.13;100.00
15674;BME280;7937;48.090;16.212;2024-02-15T07:10:44;98328.91;;;6.90;100.00
15674;BME280;7937;48.090;16.212;2024-02-15T07:13:47;98327.06;;;6.84;100.00
15674;BME280;7937;48.090;16.212;2024-02-15T07:16:49;98331.97;;;6.81;100.00
15674;BME280;7937;48.090;16.212;2024-02-15T07:19:52;98316.47;;;6.71;100.00
15674;BME280;7937;48.090;16.212;2024-02-15T07:22:54;98329.09;;;6.82;100.00
15674;BME280;7937;48.090;16.212;2024-02-15T07:25:57;98336.66;;;6.85;100.00
15674;BME280;7937;48.090;16.212;2024-02-15T07:28:59;98335.88;;;7.05;100.00
15674;BME280;7937;48.090;16.212;2024-02-15T07:32:03;98329.94;;;7.42;100.00
15674;BME280;7937;48.090;16.212;2024-02-15T07:35:08;98327.66;;;7.53;100.00
15674;BME280;7937;48.090;16.212;2024-02-15T07:38:10;98330.13;;;7.47;100.00
15674;BME280;7937;48.090;16.212;2024-02-15T07:41:13;98329.03;;;7.82;100.00
15674;BME280;7937;48.090;16.212;2024-02-15T07:44:15;98328.22;;;7.88;100.00
15674;BME280;7937;48.090;16.212;2024-02-15T07:47:19;98329.88;;;7.75;100.00
15674;BME280;7937;48.090;16.212;2024-02-15T07:50:25;98330.72;;;7.63;100.00
15674;BME280;7937;48.090;16.212;2024-02-15T07:53:27;98336.22;;;7.61;100.00
15674;BME280;7937;48.090;16.212;2024-02-15T07:56:29;98347.44;;;7.63;100.00
15674;BME280;7937;48.090;16.212;2024-02-15T07:59:31;98337.88;;;7.69;100.00
15674;BME280;7937;48.090;16.212;2024-02-15T08:02:34;98341.09;;;7.78;100.00
15674;BME280;7937;48.090;16.212;2024-02-15T08:05:36;98316.84;;;7.74;100.00
15674;BME280;7937;48.090;16.212;2024-02-15T08:08:43;98334.72;;;7.92;100.00
15674;BME280;7937;48.090;16.212;2024-02-15T08:11:49;98334.50;;;8.00;100.00
15674;BME280;7937;48.090;16.212;2024-02-15T08:14:51;98334.91;;;8.04;100.00
15674;BME280;7937;48.090;16.212;2024-02-15T08:17:53;98339.16;;;8.11;100.00
15674;BME280;7937;48.090;16.212;2024-02-15T08:21:00;98328.53;;;8.18;100.00
15674;BME280;7937;48.090;16.212;2024-02-15T08:24:03;98298.53;;;8.11;100.00
15674;BME280;7937;48.090;16.212;2024-02-15T08:27:08;98327.84;;;8.42;100.00
15674;BME280;7937;48.090;16.212;2024-02-15T08:30:13;98319.84;;;8.49;100.00
15674;BME280;7937;48.090;16.212;2024-02-15T08:33:16;98320.44;;;8.51;100.00
15674;BME280;7937;48.090;16.212;2024-02-15T08:36:18;98326.31;;;8.60;100.00
15674;BME280;7937;48.090;16.212;2024-02-15T08:39:20;98330.66;;;8.86;100.00
15674;BME280;7937;48.090;16.212;2024-02-15T08:42:23;98323.88;;;8.90;100.00
15674;BME280;7937;48.090;16.212;2024-02-15T08:45:26;98322.59;;;9.24;100.00
15674;BME280;7937;48.090;16.212;2024-02-15T08:48:28;98301.91;;;9.01;100.00
15674;BME280;7937;48.090;16.212;2024-02-15T08:51:32;98326.13;;;9.43;100.00
15674;BME280;7937;48.090;16.212;2024-02-15T08:54:35;98327.81;;;9.37;100.00
15674;BME280;7937;48.090;16.212;2024-02-15T08:57:43;98321.47;;;9.38;100.00
15674;BME280;7937;48.090;16.212;2024-02-15T09:00:48;98315.53;;;9.61;100.00
15674;BME280;7937;48.090;16.212;2024-02-15T09:03:50;98320.81;;;9.86;100.00
15674;BME280;7937;48.090;16.212;2024-02-15T09:06:52;98304.03;;;9.86;100.00
15674;BME280;7937;48.090;16.212;2024-02-15T09:09:54;98320.63;;;9.99;100.00
15674;BME280;7937;48.090;16.212;2024-02-15T09:12:57;98316.09;;;10.25;100.00
15674;BME280;7937;48.090;16.212;2024-02-15T09:15:59;98308.88;;;10.44;100.00
15674;BME280;7937;48.090;16.212;2024-02-15T09:19:01;98307.72;;;10.70;97.77
15674;BME280;7937;48.090;16.212;2024-02-15T09:22:04;98299.84;;;10.75;93.57
15674;BME280;7937;48.090;16.212;2024-02-15T09:25:07;98308.34;;;10.95;93.30
15674;BME280;7937;48.090;16.212;2024-02-15T09:28:10;98310.47;;;11.05;88.38
15674;BME280;7937;48.090;16.212;2024-02-15T09:31:13;98308.28;;;11.14;85.81
15674;BME280;7937;48.090;16.212;2024-02-15T09:34:15;98312.81;;;11.25;86.73
15674;BME280;7937;48.090;16.212;2024-02-15T09:37:18;98308.06;;;11.50;87.19
15674;BME280;7937;48.090;16.212;2024-02-15T09:40:20;98305.06;;;11.58;87.38
15674;BME280;7937;48.090;16.212;2024-02-15T09:43:23;98304.78;;;11.72;85.58
15674;BME280;7937;48.090;16.212;2024-02-15T09:46:28;98301.66;;;11.98;84.80
15674;BME280;7937;48.090;16.212;2024-02-15T09:49:36;98296.69;;;12.30;80.22
15674;BME280;7937;48.090;16.212;2024-02-15T09:52:45;98291.28;;;12.71;82.93
15674;BME280;7937;48.090;16.212;2024-02-15T09:55:48;98294.09;;;13.09;79.93
15674;BME280;7937;48.090;16.212;2024-02-15T09:58:51;98288.47;;;13.23;75.95
15674;BME280;7937;48.090;16.212;2024-02-15T10:01:56;98279.94;;;13.42;75.07
15674;BME280;7937;48.090;16.212;2024-02-15T10:05:00;98284.84;;;13.67;73.75
15674;BME280;7937;48.090;16.212;2024-02-15T10:08:03;98277.38;;;13.70;70.97
15674;BME280;7937;48.090;16.212;2024-02-15T10:11:08;98280.13;;;13.97;73.35
15674;BME280;7937;48.090;16.212;2024-02-15T10:14:11;98281.34;;;14.06;66.51
15674;BME280;7937;48.090;16.212;2024-02-15T10:17:13;98268.81;;;14.11;66.69
15674;BME280;7937;48.090;16.212;2024-02-15T10:20:19;98280.31;;;14.34;67.39
15674;BME280;7937;48.090;16.212;2024-02-15T10:23:21;98269.53;;;14.51;63.59
15674;BME280;7937;48.090;16.212;2024-02-15T10:26:23;98262.97;;;14.63;62.73
15674;BME280;7937;48.090;16.212;2024-02-15T10:29:26;98263.25;;;14.67;61.68
15674;BME280;7937;48.090;16.212;2024-02-15T10:32:34;98265.19;;;14.71;63.54
15674;BME280;7937;48.090;16.212;2024-02-15T10:35:37;98266.41;;;14.59;62.23
15674;BME280;7937;48.090;16.212;2024-02-15T10:38:40;98265.34;;;14.38;61.10
15674;BME280;7937;48.090;16.212;2024-02-15T10:41:46;98262.91;;;14.36;63.13
15674;BME280;7937;48.090;16.212;2024-02-15T10:44:51;98262.56;;;14.28;62.63
15674;BME280;7937;48.090;16.212;2024-02-15T10:47:54;98251.22;;;14.20;63.50
15674;BME280;7937;48.090;16.212;2024-02-15T10:50:59;98232.84;;;14.07;62.60
15674;BME280;7937;48.090;16.212;2024-02-15T10:54:02;98242.50;;;14.30;64.64
15674;BME280;7937;48.090;16.212;2024-02-15T10:57:06;98237.78;;;14.42;62.86
15674;BME280;7937;48.090;16.212;2024-02-15T11:00:11;98243.22;;;14.75;60.16
15674;BME280;7937;48.090;16.212;2024-02-15T11:03:34;98211.38;;;14.83;61.46
15674;BME280;7937;48.090;16.212;2024-02-15T11:06:38;98221.56;;;15.18;61.26
15674;BME280;7937;48.090;16.212;2024-02-15T11:09:44;98189.06;;;15.15;59.37
15674;BME280;7937;48.090;16.212;2024-02-15T11:12:46;98219.59;;;15.51;60.27
15674;BME280;7937;48.090;16.212;2024-02-15T11:15:52;98212.22;;;15.26;58.70
15674;BME280;7937;48.090;16.212;2024-02-15T11:18:55;98211.25;;;15.00;59.01
15674;BME280;7937;48.090;16.212;2024-02-15T11:21:58;98204.75;;;14.96;59.30
15674;BME280;7937;48.090;16.212;2024-02-15T11:25:00;98209.72;;;15.14;59.76
15674;BME280;7937;48.090;16.212;2024-02-15T11:31:54;98200.06;;;15.13;60.60
15674;BME280;7937;48.090;16.212;2024-02-15T11:35:07;98194.88;;;15.02;60.99
15674;BME280;7937;48.090;16.212;2024-02-15T11:38:27;98204.25;;;14.99;61.57
15674;BME280;7937;48.090;16.212;2024-02-15T11:41:30;98207.00;;;15.09;61.54
15674;BME280;7937;48.090;16.212;2024-02-15T11:44:32;98171.53;;;15.02;58.64
15674;BME280;7937;48.090;16.212;2024-02-15T11:47:38;98208.00;;;14.98;61.14
15674;BME280;7937;48.090;16.212;2024-02-15T11:50:42;98194.53;;;14.88;60.13
15674;BME280;7937;48.090;16.212;2024-02-15T11:53:44;98209.34;;;15.01;60.13
15674;BME280;7937;48.090;16.212;2024-02-15T11:56:51;98206.22;;;15.09;60.09
15674;BME280;7937;48.090;16.212;2024-02-15T11:59:56;98204.88;;;15.11;59.12
15674;BME280;7937;48.090;16.212;2024-02-15T12:03:19;98208.13;;;14.81;61.29
15674;BME280;7937;48.090;16.212;2024-02-15T12:06:47;98202.72;;;14.76;60.03
15674;BME280;7937;48.090;16.212;2024-02-15T12:10:15;98197.25;;;14.93;61.24
15674;BME280;7937;48.090;16.212;2024-02-15T12:13:35;98179.13;;;15.15;58.29
15674;BME280;7937;48.090;16.212;2024-02-15T12:17:03;98189.13;;;15.25;59.52
15674;BME280;7937;48.090;16.212;2024-02-15T12:20:25;98178.25;;;15.42;59.60
15674;BME280;7937;48.090;16.212;2024-02-15T12:23:28;98179.78;;;15.33;59.07
15674;BME280;7937;48.090;16.212;2024-02-15T12:26:32;98159.72;;;15.51;57.62
15674;BME280;7937;48.090;16.212;2024-02-15T12:29:36;98171.47;;;15.34;57.71
15674;BME280;7937;48.090;16.212;2024-02-15T12:32:39;98163.09;;;15.26;57.72
15674;BME280;7937;48.090;16.212;2024-02-15T12:35:41;98166.97;;;15.50;56.85
15674;BME280;7937;48.090;16.212;2024-02-15T12:38:45;98153.69;;;15.23;57.27
15674;BME280;7937;48.090;16.212;2024-02-15T12:41:48;98164.59;;;15.06;57.77
15674;BME280;7937;48.090;16.212;2024-02-15T12:44:54;98158.63;;;14.94;58.09
15674;BME280;7937;48.090;16.212;2024-02-15T12:47:57;98157.88;;;15.04;58.22
15674;BME280;7937;48.090;16.212;2024-02-15T12:51:12;98156.00;;;15.04;58.67
15674;BME280;7937;48.090;16.212;2024-02-15T12:54:15;98153.81;;;15.01;59.54
15674;BME280;7937;48.090;16.212;2024-02-15T12:57:20;98148.03;;;15.19;59.56
15674;BME280;7937;48.090;16.212;2024-02-15T13:00:24;98142.22;;;15.33;58.68
15674;BME280;7937;48.090;16.212;2024-02-15T13:03:37;98140.91;;;14.93;62.00
15674;BME280;7937;48.090;16.212;2024-02-15T13:06:40;98147.59;;;14.53;63.38
15674;BME280;7937;48.090;16.212;2024-02-15T13:09:42;98145.19;;;14.30;64.87
15674;BME280;7937;48.090;16.212;2024-02-15T13:12:45;98146.63;;;14.10;66.08
15674;BME280;7937;48.090;16.212;2024-02-15T13:15:48;98144.34;;;14.24;64.99
15674;BME280;7937;48.090;16.212;2024-02-15T13:18:54;98150.34;;;14.36;64.98
15674;BME280;7937;48.090;16.212;2024-02-15T13:21:56;98143.00;;;14.49;64.85
15674;BME280;7937;48.090;16.212;2024-02-15T13:24:59;98137.91;;;14.52;62.52
15674;BME280;7937;48.090;16.212;2024-02-15T13:28:02;98134.53;;;14.35;62.86
15674;BME280;7937;48.090;16.212;2024-02-15T13:31:06;98137.31;;;14.18;63.04
15674;BME280;7937;48.090;16.212;2024-02-15T13:34:09;98137.72;;;14.05;63.61
15674;BME280;7937;48.090;16.212;2024-02-15T13:37:14;98127.50;;;13.75;64.66
15674;BME280;7937;48.090;16.212;2024-02-15T13:40:16;98120.97;;;13.65;64.66
15674;BME280;7937;48.090;16.212;2024-02-15T13:43:18;98122.72;;;13.55;65.15
15674;BME280;7937;48.090;16.212;2024-02-15T13:46:20;98124.41;;;13.61;65.39
15674;BME280;7937;48.090;16.212;2024-02-15T13:49:22;98119.28;;;13.59;65.34
15674;BME280;7937;48.090;16.212;2024-02-15T13:52:33;98128.94;;;13.60;65.42
15674;BME280;7937;48.090;16.212;2024-02-15T13:55:37;98124.19;;;13.67;65.71
15674;BME280;7937;48.090;16.212;2024-02-15T14:03:26;98124.47;;;13.66;62.75
15674;BME280;7937;48.090;16.212;2024-02-15T14:06:29;98120.13;;;13.60;62.77
15674;BME280;7937;48.090;16.212;2024-02-15T14:09:31;98117.59;;;13.53;62.29
15674;BME280;7937;48.090;16.212;2024-02-15T14:12:34;98128.25;;;13.70;61.09
15674;BME280;7937;48.090;16.212;2024-02-15T14:15:36;98124.34;;;13.56;61.63
15674;BME280;7937;48.090;16.212;2024-02-15T14:18:41;98120.81;;;13.50;61.30
15674;BME280;7937;48.090;16.212;2024-02-15T14:21:46;98121.66;;;13.56;61.47
15674;BME280;7937;48.090;16.212;2024-02-15T14:24:49;98116.75;;;13.48;61.18
15674;BME280;7937;48.090;16.212;2024-02-15T14:27:54;98122.03;;;13.42;60.98
15674;BME280;7937;48.090;16.212;2024-02-15T14:30:56;98132.19;;;13.40;60.34
15674;BME280;7937;48.090;16.212;2024-02-15T14:34:17;98129.56;;;13.46;60.08
15674;BME280;7937;48.090;16.212;2024-02-15T14:37:19;98125.41;;;13.55;59.10
15674;BME280;7937;48.090;16.212;2024-02-15T14:40:24;98121.16;;;13.59;57.79
15674;BME280;7937;48.090;16.212;2024-02-15T14:43:28;98118.72;;;13.57;58.20
15674;BME280;7937;48.090;16.212;2024-02-15T14:46:31;98111.31;;;13.42;57.81
15674;BME280;7937;48.090;16.212;2024-02-15T14:49:36;98124.03;;;13.52;57.67
15674;BME280;7937;48.090;16.212;2024-02-15T14:52:39;98115.25;;;13.35;58.40
15674;BME280;7937;48.090;16.212;2024-02-15T14:55:41;98118.13;;;13.11;60.34
15674;BME280;7937;48.090;16.212;2024-02-15T14:58:48;98108.72;;;13.09;59.66
15674;BME280;7937;48.090;16.212;2024-02-15T15:01:51;98095.97;;;12.94;59.63
15674;BME280;7937;48.090;16.212;2024-02-15T15:04:53;98108.38;;;12.83;60.94
15674;BME280;7937;48.090;16.212;2024-02-15T15:08:14;98116.44;;;12.67;61.69
15674;BME280;7937;48.090;16.212;2024-02-15T15:11:35;98116.66;;;12.82;60.28
15674;BME280;7937;48.090;16.212;2024-02-15T15:14:56;98118.78;;;12.63;61.75
15674;BME280;7937;48.090;16.212;2024-02-15T15:17:58;98112.69;;;12.68;60.97
15674;BME280;7937;48.090;16.212;2024-02-15T15:21:01;98085.00;;;12.40;61.13
15674;BME280;7937;48.090;16.212;2024-02-15T15:24:03;98094.72;;;12.46;60.58
15674;BME280;7937;48.090;16.212;2024-02-15T15:27:05;98118.53;;;12.48;60.46
15674;BME280;7937;48.090;16.212;2024-02-15T15:30:08;98115.44;;;12.22;61.35
15674;BME280;7937;48.090;16.212;2024-02-15T15:33:12;98115.19;;;12.07;61.99
15674;BME280;7937;48.090;16.212;2024-02-15T15:36:15;98094.88;;;11.77;62.08
15674;BME280;7937;48.090;16.212;2024-02-15T15:39:19;98123.16;;;11.90;64.49
15674;BME280;7937;48.090;16.212;2024-02-15T15:42:22;98121.13;;;11.69;63.96
15674;BME280;7937;48.090;16.212;2024-02-15T15:45:24;98097.75;;;11.47;65.15
15674;BME280;7937;48.090;16.212;2024-02-15T15:48:27;98122.25;;;11.44;65.58
15674;BME280;7937;48.090;16.212;2024-02-15T15:51:29;98108.22;;;11.37;65.85
15674;BME280;7937;48.090;16.212;2024-02-15T15:54:31;98079.56;;;10.92;66.93
15674;BME280;7937;48.090;16.212;2024-02-15T15:57:35;98107.25;;;11.03;65.89
15674;BME280;7937;48.090;16.212;2024-02-15T16:00:37;98114.78;;;10.82;68.55
15674;BME280;7937;48.090;16.212;2024-02-15T16:03:39;98115.38;;;10.73;66.20
15674;BME280;7937;48.090;16.212;2024-02-15T16:06:42;98105.28;;;10.63;71.40
15674;BME280;7937;48.090;16.212;2024-02-15T16:09:45;98127.28;;;10.58;69.65
15674;BME280;7937;48.090;16.212;2024-02-15T16:12:48;98131.56;;;10.48;70.05
15674;BME280;7937;48.090;16.212;2024-02-15T16:15:53;98131.81;;;10.35;71.02
15674;BME280;7937;48.090;16.212;2024-02-15T16:18:57;98125.41;;;10.24;71.92
15674;BME280;7937;48.090;16.212;2024-02-15T16:22:00;98129.41;;;9.85;72.57
15674;BME280;7937;48.090;16.212;2024-02-15T16:25:03;98135.75;;;9.72;73.05